sensor_id;sensor_type;location;lat;lon;timestamp;temperature;humidity
6986;DHT22;3533;51.246;6.850;2023-04-15T00:00:14;19.40;44.20
6986;DHT22;3533;51.246;6.850;2023-04-15T00:02:40;19.40;44.20
6986;DHT22;3533;51.246;6.850;2023-04-15T00:05:06;19.40;44.20
6986;DHT22;3533;51.246;6.850;2023-04-15T00:07:32;19.40;44.20
6986;DHT22;3533;51.246;6.850;2023-04-15T00:09:58;19.40;44.20
6986;DHT22;3533;51.246;6.850;2023-04-15T00:12:24;19.40;44.20
6986;DHT22;3533;51.246;6.850;2023-04-15T00:14:50;19.40;44.20
6986;DHT22;3533;51.246;6.850;2023-04-15T00:17:16;19.40;44.20
6986;DHT22;3533;51.246;6.850;2023-04-15T00:19:42;19.40;44.20
6986;DHT22;3533;51.246;6.850;2023-04-15T00:22:09;19.40;44.10
6986;DHT22;3533;51.246;6.850;2023-04-15T00:24:34;19.40;44.20
6986;DHT22;3533;51.246;6.850;2023-04-15T00:27:00;19.40;44.20
6986;DHT22;3533;51.246;6.850;2023-04-15T00:29:25;19.40;44.20
6986;DHT22;3533;51.246;6.850;2023-04-15T00:31:52;19.40;44.20
6986;DHT22;3533;51.246;6.850;2023-04-15T00:34:17;19.40;44.20
6986;DHT22;3533;51.246;6.850;2023-04-15T00:36:43;19.40;44.20
6986;DHT22;3533;51.246;6.850;2023-04-15T00:39:09;19.40;44.10
6986;DHT22;3533;51.246;6.850;2023-04-15T00:41:34;19.40;44.20
6986;DHT22;3533;51.246;6.850;2023-04-15T00:44:04;19.40;44.20
6986;DHT22;3533;51.246;6.850;2023-04-15T00:46:30;19.40;44.20
6986;DHT22;3533;51.246;6.850;2023-04-15T00:48:57;19.40;44.20
6986;DHT22;3533;51.246;6.850;2023-04-15T00:51:23;19.40;44.20
6986;DHT22;3533;51.246;6.850;2023-04-15T00:53:50;19.40;44.20
6986;DHT22;3533;51.246;6.850;2023-04-15T00:56:16;19.40;44.20
6986;DHT22;3533;51.246;6.850;2023-04-15T00:58:41;19.40;44.20
6986;DHT22;3533;51.246;6.850;2023-04-15T01:01:08;19.40;44.20
6986;DHT22;3533;51.246;6.850;2023-04-15T01:03:34;19.40;44.20
6986;DHT22;3533;51.246;6.850;2023-04-15T01:06:00;19.40;44.20
6986;DHT22;3533;51.246;6.850;2023-04-15T01:08:27;19.40;44.20
6986;DHT22;3533;51.246;6.850;2023-04-15T01:10:55;19.40;44.20
6986;DHT22;3533;51.246;6.850;2023-04-15T01:13:23;19.40;44.20
6986;DHT22;3533;51.246;6.850;2023-04-15T01:15:49;19.40;44.20
6986;DHT22;3533;51.246;6.850;2023-04-15T01:18:16;19.40;44.20
6986;DHT22;3533;51.246;6.850;2023-04-15T01:20:42;19.40;44.20
6986;DHT22;3533;51.246;6.850;2023-04-15T01:23:07;19.40;44.20
6986;DHT22;3533;51.246;6.850;2023-04-15T01:25:34;19.40;44.20
6986;DHT22;3533;51.246;6.850;2023-04-15T01:27:59;19.40;44.20
6986;DHT22;3533;51.246;6.850;2023-04-15T01:30:25;19.40;44.20
6986;DHT22;3533;51.246;6.850;2023-04-15T01:32:52;19.40;44.20
6986;DHT22;3533;51.246;6.850;2023-04-15T01:35:18;19.40;44.20
6986;DHT22;3533;51.246;6.850;2023-04-15T01:37:44;19.40;44.20
6986;DHT22;3533;51.246;6.850;2023-04-15T01:40:10;19.40;44.20
6986;DHT22;3533;51.246;6.850;2023-04-15T01:42:36;19.40;44.20
6986;DHT22;3533;51.246;6.850;2023-04-15T01:45:02;19.40;44.20
6986;DHT22;3533;51.246;6.850;2023-04-15T01:47:27;19.40;44.20
6986;DHT22;3533;51.246;6.850;2023-04-15T01:49:53;19.40;44.20
6986;DHT22;3533;51.246;6.850;2023-04-15T01:52:18;19.40;44.20
6986;DHT22;3533;51.246;6.850;2023-04-15T01:54:45;19.40;44.10
6986;DHT22;3533;51.246;6.850;2023-04-15T01:57:10;19.40;44.20
6986;DHT22;3533;51.246;6.850;2023-04-15T01:59:36;19.40;44.20
6986;DHT22;3533;51.246;6.850;2023-04-15T02:02:02;19.40;44.20
6986;DHT22;3533;51.246;6.850;2023-04-15T02:04:28;19.40;44.20
6986;DHT22;3533;51.246;6.850;2023-04-15T02:06:54;19.40;44.10
6986;DHT22;3533;51.246;6.850;2023-04-15T02:09:19;19.40;44.20
6986;DHT22;3533;51.246;6.850;2023-04-15T02:11:45;19.30;44.10
6986;DHT22;3533;51.246;6.850;2023-04-15T02:14:11;19.40;44.20
6986;DHT22;3533;51.246;6.850;2023-04-15T02:16:37;19.40;44.20
6986;DHT22;3533;51.246;6.850;2023-04-15T02:19:02;19.40;44.20
6986;DHT22;3533;51.246;6.850;2023-04-15T02:21:28;19.40;44.20
6986;DHT22;3533;51.246;6.850;2023-04-15T02:23:54;19.40;44.20
6986;DHT22;3533;51.246;6.850;2023-04-15T02:26:20;19.40;44.20
6986;DHT22;3533;51.246;6.850;2023-04-15T02:28:46;19.40;44.20
6986;DHT22;3533;51.246;6.850;2023-04-15T02:31:12;19.40;44.10
6986;DHT22;3533;51.246;6.850;2023-04-15T02:33:38;19.40;44.20
6986;DHT22;3533;51.246;6.850;2023-04-15T02:36:03;19.40;44.20
6986;DHT22;3533;51.246;6.850;2023-04-15T02:38:29;19.40;44.20
6986;DHT22;3533;51.246;6.850;2023-04-15T02:40:56;19.40;44.20
6986;DHT22;3533;51.246;6.850;2023-04-15T02:43:22;19.40;44.20
6986;DHT22;3533;51.246;6.850;2023-04-15T02:45:47;19.40;44.10
6986;DHT22;3533;51.246;6.850;2023-04-15T02:48:13;19.40;44.20
6986;DHT22;3533;51.246;6.850;2023-04-15T02:50:38;19.40;44.20
6986;DHT22;3533;51.246;6.850;2023-04-15T02:53:05;19.40;44.20
6986;DHT22;3533;51.246;6.850;2023-04-15T02:55:31;19.40;44.10
6986;DHT22;3533;51.246;6.850;2023-04-15T02:57:57;19.40;44.20
6986;DHT22;3533;51.246;6.850;2023-04-15T03:00:26;19.40;44.20
6986;DHT22;3533;51.246;6.850;2023-04-15T03:02:57;19.40;44.10
6986;DHT22;3533;51.246;6.850;2023-04-15T03:05:23;19.30;44.10
6986;DHT22;3533;51.246;6.850;2023-04-15T03:07:50;19.30;44.10
6986;DHT22;3533;51.246;6.850;2023-04-15T03:10:16;19.40;44.20
6986;DHT22;3533;51.246;6.850;2023-04-15T03:12:41;19.30;44.10
6986;DHT22;3533;51.246;6.850;2023-04-15T03:15:08;19.40;44.20
6986;DHT22;3533;51.246;6.850;2023-04-15T03:17:33;19.40;44.10
6986;DHT22;3533;51.246;6.850;2023-04-15T03:20:01;19.30;44.00
6986;DHT22;3533;51.246;6.850;2023-04-15T03:22:27;19.40;44.10
6986;DHT22;3533;51.246;6.850;2023-04-15T03:24:53;19.40;44.20
6986;DHT22;3533;51.246;6.850;2023-04-15T03:27:18;19.30;44.10
6986;DHT22;3533;51.246;6.850;2023-04-15T03:29:44;19.30;44.10
6986;DHT22;3533;51.246;6.850;2023-04-15T03:32:09;19.30;44.10
6986;DHT22;3533;51.246;6.850;2023-04-15T03:34:35;19.30;44.10
6986;DHT22;3533;51.246;6.850;2023-04-15T03:37:00;19.40;44.20
6986;DHT22;3533;51.246;6.850;2023-04-15T03:39:26;19.40;44.20
6986;DHT22;3533;51.246;6.850;2023-04-15T03:41:51;19.30;44.10
6986;DHT22;3533;51.246;6.850;2023-04-15T03:44:17;19.30;44.10
6986;DHT22;3533;51.246;6.850;2023-04-15T03:46:42;19.30;44.10
6986;DHT22;3533;51.246;6.850;2023-04-15T03:49:08;19.30;44.10
6986;DHT22;3533;51.246;6.850;2023-04-15T03:51:34;19.30;44.10
6986;DHT22;3533;51.246;6.850;2023-04-15T03:54:00;19.30;44.10
6986;DHT22;3533;51.246;6.850;2023-04-15T03:56:26;19.30;44.10
6986;DHT22;3533;51.246;6.850;2023-04-15T03:58:51;19.30;44.10
6986;DHT22;3533;51.246;6.850;2023-04-15T04:01:18;19.30;44.10
6986;DHT22;3533;51.246;6.850;2023-04-15T04:03:43;19.30;44.10
6986;DHT22;3533;51.246;6.850;2023-04-15T04:06:09;19.30;44.10
6986;DHT22;3533;51.246;6.850;2023-04-15T04:08:36;19.30;44.10
6986;DHT22;3533;51.246;6.850;2023-04-15T04:11:02;19.30;44.10
6986;DHT22;3533;51.246;6.850;2023-04-15T04:13:28;19.30;44.00
6986;DHT22;3533;51.246;6.850;2023-04-15T04:15:53;19.30;44.10
6986;DHT22;3533;51.246;6.850;2023-04-15T04:18:19;19.30;44.10
6986;DHT22;3533;51.246;6.850;2023-04-15T04:20:45;19.30;44.10
6986;DHT22;3533;51.246;6.850;2023-04-15T04:23:10;19.30;44.10
6986;DHT22;3533;51.246;6.850;2023-04-15T04:25:36;19.30;44.10
6986;DHT22;3533;51.246;6.850;2023-04-15T04:28:02;19.30;44.10
6986;DHT22;3533;51.246;6.850;2023-04-15T04:30:27;19.30;44.00
6986;DHT22;3533;51.246;6.850;2023-04-15T04:32:53;19.30;44.10
6986;DHT22;3533;51.246;6.850;2023-04-15T04:35:19;19.30;44.00
6986;DHT22;3533;51.246;6.850;2023-04-15T04:37:45;19.30;44.10
6986;DHT22;3533;51.246;6.850;2023-04-15T04:40:11;19.30;44.10
6986;DHT22;3533;51.246;6.850;2023-04-15T04:42:36;19.30;44.10
6986;DHT22;3533;51.246;6.850;2023-04-15T04:45:02;19.30;44.10
6986;DHT22;3533;51.246;6.850;2023-04-15T04:47:28;19.30;44.10
6986;DHT22;3533;51.246;6.850;2023-04-15T04:49:54;19.40;44.20
6986;DHT22;3533;51.246;6.850;2023-04-15T04:52:20;19.30;44.10
6986;DHT22;3533;51.246;6.850;2023-04-15T04:54:45;19.40;44.20
6986;DHT22;3533;51.246;6.850;2023-04-15T04:57:11;19.40;44.20
6986;DHT22;3533;51.246;6.850;2023-04-15T04:59:38;19.30;44.10
6986;DHT22;3533;51.246;6.850;2023-04-15T05:02:03;19.40;44.20
6986;DHT22;3533;51.246;6.850;2023-04-15T05:04:29;19.40;44.20
6986;DHT22;3533;51.246;6.850;2023-04-15T05:06:56;19.40;44.20
6986;DHT22;3533;51.246;6.850;2023-04-15T05:09:22;19.40;44.20
6986;DHT22;3533;51.246;6.850;2023-04-15T05:11:47;19.40;44.20
6986;DHT22;3533;51.246;6.850;2023-04-15T05:14:13;19.40;45.00
6986;DHT22;3533;51.246;6.850;2023-04-15T05:16:38;19.40;44.20
6986;DHT22;3533;51.246;6.850;2023-04-15T05:19:04;19.40;44.20
6986;DHT22;3533;51.246;6.850;2023-04-15T05:21:30;19.40;44.20
6986;DHT22;3533;51.246;6.850;2023-04-15T05:23:56;19.40;44.20
6986;DHT22;3533;51.246;6.850;2023-04-15T05:26:21;19.40;44.20
6986;DHT22;3533;51.246;6.850;2023-04-15T05:28:48;19.40;44.10
6986;DHT22;3533;51.246;6.850;2023-04-15T05:31:14;19.40;44.20
6986;DHT22;3533;51.246;6.850;2023-04-15T05:33:40;19.40;44.20
6986;DHT22;3533;51.246;6.850;2023-04-15T05:36:06;19.40;44.20
6986;DHT22;3533;51.246;6.850;2023-04-15T05:38:31;19.40;44.10
6986;DHT22;3533;51.246;6.850;2023-04-15T05:40:57;19.40;44.10
6986;DHT22;3533;51.246;6.850;2023-04-15T05:43:23;19.40;44.20
6986;DHT22;3533;51.246;6.850;2023-04-15T05:45:48;19.40;44.10
6986;DHT22;3533;51.246;6.850;2023-04-15T05:48:14;19.40;44.20
6986;DHT22;3533;51.246;6.850;2023-04-15T05:50:41;19.40;44.10
6986;DHT22;3533;51.246;6.850;2023-04-15T05:53:07;19.40;44.20
6986;DHT22;3533;51.246;6.850;2023-04-15T05:55:33;19.40;44.10
6986;DHT22;3533;51.246;6.850;2023-04-15T05:57:58;19.40;44.10
6986;DHT22;3533;51.246;6.850;2023-04-15T06:00:24;19.40;44.00
6986;DHT22;3533;51.246;6.850;2023-04-15T06:02:50;19.40;44.00
6986;DHT22;3533;51.246;6.850;2023-04-15T06:05:17;19.40;44.00
6986;DHT22;3533;51.246;6.850;2023-04-15T06:07:42;19.40;44.10
6986;DHT22;3533;51.246;6.850;2023-04-15T06:10:08;19.40;44.00
6986;DHT22;3533;51.246;6.850;2023-04-15T06:12:34;19.40;44.10
6986;DHT22;3533;51.246;6.850;2023-04-15T06:15:00;19.40;44.00
6986;DHT22;3533;51.246;6.850;2023-04-15T06:17:25;19.40;43.90
6986;DHT22;3533;51.246;6.850;2023-04-15T06:19:51;19.40;43.90
6986;DHT22;3533;51.246;6.850;2023-04-15T06:22:21;19.40;44.00
6986;DHT22;3533;51.246;6.850;2023-04-15T06:24:47;19.40;43.90
6986;DHT22;3533;51.246;6.850;2023-04-15T06:27:15;19.40;43.90
6986;DHT22;3533;51.246;6.850;2023-04-15T06:29:40;19.40;43.80
6986;DHT22;3533;51.246;6.850;2023-04-15T06:32:06;19.40;43.80
6986;DHT22;3533;51.246;6.850;2023-04-15T06:34:32;19.40;43.80
6986;DHT22;3533;51.246;6.850;2023-04-15T06:36:57;19.40;43.80
6986;DHT22;3533;51.246;6.850;2023-04-15T06:39:23;19.40;43.80
6986;DHT22;3533;51.246;6.850;2023-04-15T06:41:48;19.40;43.80
6986;DHT22;3533;51.246;6.850;2023-04-15T06:44:14;19.40;43.80
6986;DHT22;3533;51.246;6.850;2023-04-15T06:46:40;19.40;43.80
6986;DHT22;3533;51.246;6.850;2023-04-15T06:49:05;19.40;43.80
6986;DHT22;3533;51.246;6.850;2023-04-15T06:51:31;19.40;44.00
6986;DHT22;3533;51.246;6.850;2023-04-15T06:53:57;19.40;43.90
6986;DHT22;3533;51.246;6.850;2023-04-15T06:56:22;19.40;44.00
6986;DHT22;3533;51.246;6.850;2023-04-15T06:58:48;19.40;43.90
6986;DHT22;3533;51.246;6.850;2023-04-15T07:01:13;19.40;44.00
6986;DHT22;3533;51.246;6.850;2023-04-15T07:03:39;19.40;43.90
6986;DHT22;3533;51.246;6.850;2023-04-15T07:06:09;19.40;43.90
6986;DHT22;3533;51.246;6.850;2023-04-15T07:08:34;19.40;43.80
6986;DHT22;3533;51.246;6.850;2023-04-15T07:11:00;19.40;43.80
6986;DHT22;3533;51.246;6.850;2023-04-15T07:13:26;19.40;43.80
6986;DHT22;3533;51.246;6.850;2023-04-15T07:15:51;19.40;43.80
6986;DHT22;3533;51.246;6.850;2023-04-15T07:18:17;19.40;43.80
6986;DHT22;3533;51.246;6.850;2023-04-15T07:20:42;19.40;43.80
6986;DHT22;3533;51.246;6.850;2023-04-15T07:23:08;19.40;43.80
6986;DHT22;3533;51.246;6.850;2023-04-15T07:25:34;19.40;43.80
6986;DHT22;3533;51.246;6.850;2023-04-15T07:27:59;19.40;43.70
6986;DHT22;3533;51.246;6.850;2023-04-15T07:30:25;19.40;43.80
6986;DHT22;3533;51.246;6.850;2023-04-15T07:32:50;19.40;43.70
6986;DHT22;3533;51.246;6.850;2023-04-15T07:35:16;19.40;43.70
6986;DHT22;3533;51.246;6.850;2023-04-15T07:37:42;19.50;43.80
6986;DHT22;3533;51.246;6.850;2023-04-15T07:40:08;19.50;43.80
6986;DHT22;3533;51.246;6.850;2023-04-15T07:42:34;19.50;43.70
6986;DHT22;3533;51.246;6.850;2023-04-15T07:45:00;19.40;43.70
6986;DHT22;3533;51.246;6.850;2023-04-15T07:47:26;19.40;43.70
6986;DHT22;3533;51.246;6.850;2023-04-15T07:49:52;19.40;43.70
6986;DHT22;3533;51.246;6.850;2023-04-15T07:52:17;19.40;43.70
6986;DHT22;3533;51.246;6.850;2023-04-15T07:54:44;19.40;43.60
6986;DHT22;3533;51.246;6.850;2023-04-15T07:57:09;19.40;43.70
6986;DHT22;3533;51.246;6.850;2023-04-15T07:59:35;19.40;43.60
6986;DHT22;3533;51.246;6.850;2023-04-15T08:02:01;19.50;43.70
6986;DHT22;3533;51.246;6.850;2023-04-15T08:04:26;19.40;43.60
6986;DHT22;3533;51.246;6.850;2023-04-15T08:06:52;19.40;43.70
6986;DHT22;3533;51.246;6.850;2023-04-15T08:09:19;19.50;43.80
6986;DHT22;3533;51.246;6.850;2023-04-15T08:11:49;19.50;43.80
6986;DHT22;3533;51.246;6.850;2023-04-15T08:14:15;19.50;43.80
6986;DHT22;3533;51.246;6.850;2023-04-15T08:16:41;19.50;43.70
6986;DHT22;3533;51.246;6.850;2023-04-15T08:19:06;19.50;43.80
6986;DHT22;3533;51.246;6.850;2023-04-15T08:21:32;19.50;43.90
6986;DHT22;3533;51.246;6.850;2023-04-15T08:23:58;19.50;43.80
6986;DHT22;3533;51.246;6.850;2023-04-15T08:26:24;19.50;43.70
6986;DHT22;3533;51.246;6.850;2023-04-15T08:28:50;19.50;43.70
6986;DHT22;3533;51.246;6.850;2023-04-15T08:31:17;19.50;43.70
6986;DHT22;3533;51.246;6.850;2023-04-15T08:33:43;19.50;43.70
6986;DHT22;3533;51.246;6.850;2023-04-15T08:36:08;19.50;43.80
6986;DHT22;3533;51.246;6.850;2023-04-15T08:38:35;19.50;43.70
6986;DHT22;3533;51.246;6.850;2023-04-15T08:41:05;19.50;43.80
6986;DHT22;3533;51.246;6.850;2023-04-15T08:43:39;19.50;43.80
6986;DHT22;3533;51.246;6.850;2023-04-15T08:46:09;19.50;43.70
6986;DHT22;3533;51.246;6.850;2023-04-15T08:48:37;19.50;43.70
6986;DHT22;3533;51.246;6.850;2023-04-15T08:51:03;19.50;43.80
6986;DHT22;3533;51.246;6.850;2023-04-15T08:53:29;19.50;43.70
6986;DHT22;3533;51.246;6.850;2023-04-15T08:55:56;19.50;43.70
6986;DHT22;3533;51.246;6.850;2023-04-15T08:58:23;19.50;43.80
6986;DHT22;3533;51.246;6.850;2023-04-15T09:00:49;19.50;43.80
6986;DHT22;3533;51.246;6.850;2023-04-15T09:03:15;19.50;43.80
6986;DHT22;3533;51.246;6.850;2023-04-15T09:05:41;19.40;43.80
6986;DHT22;3533;51.246;6.850;2023-04-15T09:08:07;19.50;43.80
6986;DHT22;3533;51.246;6.850;2023-04-15T09:10:33;19.50;43.80
6986;DHT22;3533;51.246;6.850;2023-04-15T09:13:00;19.50;43.80
6986;DHT22;3533;51.246;6.850;2023-04-15T09:15:26;19.50;43.90
6986;DHT22;3533;51.246;6.850;2023-04-15T09:17:53;19.50;43.80
6986;DHT22;3533;51.246;6.850;2023-04-15T09:20:19;19.50;43.80
6986;DHT22;3533;51.246;6.850;2023-04-15T09:22:46;19.50;43.80
6986;DHT22;3533;51.246;6.850;2023-04-15T09:27:48;19.50;43.70
6986;DHT22;3533;51.246;6.850;2023-04-15T09:30:14;19.50;43.70
6986;DHT22;3533;51.246;6.850;2023-04-15T09:32:54;19.50;43.70
6986;DHT22;3533;51.246;6.850;2023-04-15T09:35:21;19.50;43.70
6986;DHT22;3533;51.246;6.850;2023-04-15T09:37:50;19.50;43.70
6986;DHT22;3533;51.246;6.850;2023-04-15T09:43:02;19.50;43.70
6986;DHT22;3533;51.246;6.850;2023-04-15T09:45:28;19.50;43.70
6986;DHT22;3533;51.246;6.850;2023-04-15T09:47:54;19.50;43.80
6986;DHT22;3533;51.246;6.850;2023-04-15T09:50:20;19.50;43.70
6986;DHT22;3533;51.246;6.850;2023-04-15T09:52:46;19.50;43.70
6986;DHT22;3533;51.246;6.850;2023-04-15T09:55:13;19.50;43.70
6986;DHT22;3533;51.246;6.850;2023-04-15T09:57:39;19.50;43.70
6986;DHT22;3533;51.246;6.850;2023-04-15T10:00:07;19.50;43.70
6986;DHT22;3533;51.246;6.850;2023-04-15T10:02:33;19.50;43.60
6986;DHT22;3533;51.246;6.850;2023-04-15T10:05:00;19.50;43.60
6986;DHT22;3533;51.246;6.850;2023-04-15T10:07:26;19.50;43.60
6986;DHT22;3533;51.246;6.850;2023-04-15T10:09:52;19.50;43.60
6986;DHT22;3533;51.246;6.850;2023-04-15T10:12:19;19.50;43.60
6986;DHT22;3533;51.246;6.850;2023-04-15T10:14:51;19.50;43.60
6986;DHT22;3533;51.246;6.850;2023-04-15T10:17:17;19.50;43.60
6986;DHT22;3533;51.246;6.850;2023-04-15T10:19:46;19.50;43.60
6986;DHT22;3533;51.246;6.850;2023-04-15T10:22:13;19.50;43.70
6986;DHT22;3533;51.246;6.850;2023-04-15T10:24:39;19.50;43.60
6986;DHT22;3533;51.246;6.850;2023-04-15T10:27:05;19.50;43.60
6986;DHT22;3533;51.246;6.850;2023-04-15T10:29:31;19.60;43.60
6986;DHT22;3533;51.246;6.850;2023-04-15T10:31:58;19.50;43.60
6986;DHT22;3533;51.246;6.850;2023-04-15T10:34:24;19.50;43.60
6986;DHT22;3533;51.246;6.850;2023-04-15T10:36:50;19.50;43.70
6986;DHT22;3533;51.246;6.850;2023-04-15T10:42:16;19.50;43.70
6986;DHT22;3533;51.246;6.850;2023-04-15T10:44:48;19.50;43.60
6986;DHT22;3533;51.246;6.850;2023-04-15T10:47:17;19.50;43.70
6986;DHT22;3533;51.246;6.850;2023-04-15T10:49:54;19.50;43.70
6986;DHT22;3533;51.246;6.850;2023-04-15T10:52:26;19.50;43.70
6986;DHT22;3533;51.246;6.850;2023-04-15T10:55:15;19.50;43.70
6986;DHT22;3533;51.246;6.850;2023-04-15T10:57:43;19.50;43.70
6986;DHT22;3533;51.246;6.850;2023-04-15T11:00:16;19.50;43.70
6986;DHT22;3533;51.246;6.850;2023-04-15T11:05:08;19.50;43.70
6986;DHT22;3533;51.246;6.850;2023-04-15T11:07:54;19.50;43.70
6986;DHT22;3533;51.246;6.850;2023-04-15T11:13:04;19.50;43.70
6986;DHT22;3533;51.246;6.850;2023-04-15T11:18:40;19.50;43.70
6986;DHT22;3533;51.246;6.850;2023-04-15T11:21:01;19.50;43.70
6986;DHT22;3533;51.246;6.850;2023-04-15T11:23:38;19.50;43.80
6986;DHT22;3533;51.246;6.850;2023-04-15T11:26:06;19.50;43.70
6986;DHT22;3533;51.246;6.850;2023-04-15T11:28:34;19.50;43.70
6986;DHT22;3533;51.246;6.850;2023-04-15T11:31:08;19.50;43.80
6986;DHT22;3533;51.246;6.850;2023-04-15T11:33:35;19.50;43.70
6986;DHT22;3533;51.246;6.850;2023-04-15T11:36:01;19.50;43.80
6986;DHT22;3533;51.246;6.850;2023-04-15T11:38:27;19.50;43.70
6986;DHT22;3533;51.246;6.850;2023-04-15T11:40:53;19.50;43.70
6986;DHT22;3533;51.246;6.850;2023-04-15T11:43:20;19.50;43.80
6986;DHT22;3533;51.246;6.850;2023-04-15T11:45:54;19.50;43.70
6986;DHT22;3533;51.246;6.850;2023-04-15T11:48:44;19.50;43.70
6986;DHT22;3533;51.246;6.850;2023-04-15T11:51:11;19.50;43.70
6986;DHT22;3533;51.246;6.850;2023-04-15T11:53:46;19.50;43.50
6986;DHT22;3533;51.246;6.850;2023-04-15T11:56:23;19.50;43.40
6986;DHT22;3533;51.246;6.850;2023-04-15T11:58:53;19.50;43.40
6986;DHT22;3533;51.246;6.850;2023-04-15T12:01:36;19.50;43.50
6986;DHT22;3533;51.246;6.850;2023-04-15T12:04:15;19.40;43.40
6986;DHT22;3533;51.246;6.850;2023-04-15T12:06:46;19.50;43.50
6986;DHT22;3533;51.246;6.850;2023-04-15T12:09:12;19.50;43.50
6986;DHT22;3533;51.246;6.850;2023-04-15T12:11:39;19.40;43.40
6986;DHT22;3533;51.246;6.850;2023-04-15T12:16:45;19.40;43.40
6986;DHT22;3533;51.246;6.850;2023-04-15T12:19:13;19.40;43.50
6986;DHT22;3533;51.246;6.850;2023-04-15T12:21:41;19.40;43.50
6986;DHT22;3533;51.246;6.850;2023-04-15T12:24:09;19.40;43.50
6986;DHT22;3533;51.246;6.850;2023-04-15T12:26:55;19.40;43.50
6986;DHT22;3533;51.246;6.850;2023-04-15T12:29:25;19.40;43.50
6986;DHT22;3533;51.246;6.850;2023-04-15T12:32:05;19.40;43.50
6986;DHT22;3533;51.246;6.850;2023-04-15T12:34:37;19.40;43.60
6986;DHT22;3533;51.246;6.850;2023-04-15T12:37:05;19.40;43.50
6986;DHT22;3533;51.246;6.850;2023-04-15T12:39:34;19.40;43.50
6986;DHT22;3533;51.246;6.850;2023-04-15T12:42:02;19.40;43.50
6986;DHT22;3533;51.246;6.850;2023-04-15T12:44:28;19.40;43.50
6986;DHT22;3533;51.246;6.850;2023-04-15T12:46:54;19.40;43.40
6986;DHT22;3533;51.246;6.850;2023-04-15T12:49:20;19.40;43.40
6986;DHT22;3533;51.246;6.850;2023-04-15T12:51:51;19.40;43.40
6986;DHT22;3533;51.246;6.850;2023-04-15T12:54:17;19.40;43.40
6986;DHT22;3533;51.246;6.850;2023-04-15T12:56:44;19.40;43.40
6986;DHT22;3533;51.246;6.850;2023-04-15T12:59:10;19.40;43.40
6986;DHT22;3533;51.246;6.850;2023-04-15T13:01:37;19.40;43.40
6986;DHT22;3533;51.246;6.850;2023-04-15T13:04:03;19.40;43.40
6986;DHT22;3533;51.246;6.850;2023-04-15T13:06:28;19.40;43.50
6986;DHT22;3533;51.246;6.850;2023-04-15T13:08:54;19.40;43.40
6986;DHT22;3533;51.246;6.850;2023-04-15T13:11:21;19.40;43.50
6986;DHT22;3533;51.246;6.850;2023-04-15T13:13:47;19.40;43.40
6986;DHT22;3533;51.246;6.850;2023-04-15T13:16:12;19.40;43.40
6986;DHT22;3533;51.246;6.850;2023-04-15T13:18:38;19.40;43.40
6986;DHT22;3533;51.246;6.850;2023-04-15T13:21:04;19.40;43.40
6986;DHT22;3533;51.246;6.850;2023-04-15T13:23:32;19.40;43.40
6986;DHT22;3533;51.246;6.850;2023-04-15T13:25:57;19.40;43.40
6986;DHT22;3533;51.246;6.850;2023-04-15T13:28:23;19.40;43.40
6986;DHT22;3533;51.246;6.850;2023-04-15T13:30:48;19.40;43.50
6986;DHT22;3533;51.246;6.850;2023-04-15T13:33:15;19.40;43.50
6986;DHT22;3533;51.246;6.850;2023-04-15T13:35:41;19.40;43.50
6986;DHT22;3533;51.246;6.850;2023-04-15T13:38:06;19.40;43.50
6986;DHT22;3533;51.246;6.850;2023-04-15T13:40:32;19.40;43.50
6986;DHT22;3533;51.246;6.850;2023-04-15T13:42:57;19.40;43.60
6986;DHT22;3533;51.246;6.850;2023-04-15T13:45:24;19.40;43.60
6986;DHT22;3533;51.246;6.850;2023-04-15T13:47:50;19.40;43.70
6986;DHT22;3533;51.246;6.850;2023-04-15T13:50:16;19.40;43.70
6986;DHT22;3533;51.246;6.850;2023-04-15T13:52:41;19.40;43.60
6986;DHT22;3533;51.246;6.850;2023-04-15T13:55:07;19.40;43.70
6986;DHT22;3533;51.246;6.850;2023-04-15T13:57:33;19.40;43.70
6986;DHT22;3533;51.246;6.850;2023-04-15T13:59:58;19.40;43.70
6986;DHT22;3533;51.246;6.850;2023-04-15T14:02:24;19.40;43.60
6986;DHT22;3533;51.246;6.850;2023-04-15T14:04:50;19.40;43.60
6986;DHT22;3533;51.246;6.850;2023-04-15T14:07:15;19.40;43.60
6986;DHT22;3533;51.246;6.850;2023-04-15T14:09:42;19.40;43.60
6986;DHT22;3533;51.246;6.850;2023-04-15T14:12:08;19.40;43.50
6986;DHT22;3533;51.246;6.850;2023-04-15T14:14:34;19.40;43.60
6986;DHT22;3533;51.246;6.850;2023-04-15T14:16:59;19.40;43.50
6986;DHT22;3533;51.246;6.850;2023-04-15T14:19:25;19.40;43.50
6986;DHT22;3533;51.246;6.850;2023-04-15T14:21:50;19.40;43.40
6986;DHT22;3533;51.246;6.850;2023-04-15T14:24:16;19.40;43.40
6986;DHT22;3533;51.246;6.850;2023-04-15T14:26:42;19.40;43.40
6986;DHT22;3533;51.246;6.850;2023-04-15T14:29:08;19.40;43.40
6986;DHT22;3533;51.246;6.850;2023-04-15T14:31:34;19.40;43.30
6986;DHT22;3533;51.246;6.850;2023-04-15T14:34:00;19.40;43.30
6986;DHT22;3533;51.246;6.850;2023-04-15T14:36:26;19.40;43.30
6986;DHT22;3533;51.246;6.850;2023-04-15T14:38:51;19.40;43.30
6986;DHT22;3533;51.246;6.850;2023-04-15T14:41:17;19.40;43.30
6986;DHT22;3533;51.246;6.850;2023-04-15T14:43:42;19.40;43.30
6986;DHT22;3533;51.246;6.850;2023-04-15T14:46:09;19.40;43.30
6986;DHT22;3533;51.246;6.850;2023-04-15T14:48:35;19.40;43.30
6986;DHT22;3533;51.246;6.850;2023-04-15T14:51:00;19.40;43.30
6986;DHT22;3533;51.246;6.850;2023-04-15T14:53:26;19.40;43.40
6986;DHT22;3533;51.246;6.850;2023-04-15T14:55:52;19.40;43.30
6986;DHT22;3533;51.246;6.850;2023-04-15T14:58:17;19.40;43.40
6986;DHT22;3533;51.246;6.850;2023-04-15T15:00:43;19.40;43.40
6986;DHT22;3533;51.246;6.850;2023-04-15T15:03:10;19.40;43.40
6986;DHT22;3533;51.246;6.850;2023-04-15T15:05:43;19.40;43.40
6986;DHT22;3533;51.246;6.850;2023-04-15T15:08:09;19.40;43.40
6986;DHT22;3533;51.246;6.850;2023-04-15T15:10:35;19.40;43.30
6986;DHT22;3533;51.246;6.850;2023-04-15T15:13:02;19.40;43.30
6986;DHT22;3533;51.246;6.850;2023-04-15T15:15:28;19.40;43.30
6986;DHT22;3533;51.246;6.850;2023-04-15T15:17:54;19.40;43.40
6986;DHT22;3533;51.246;6.850;2023-04-15T15:20:20;19.40;43.30
6986;DHT22;3533;51.246;6.850;2023-04-15T15:22:45;19.40;43.30
6986;DHT22;3533;51.246;6.850;2023-04-15T15:25:11;19.40;43.30
6986;DHT22;3533;51.246;6.850;2023-04-15T15:27:36;19.40;43.30
6986;DHT22;3533;51.246;6.850;2023-04-15T15:30:02;19.40;43.30
6986;DHT22;3533;51.246;6.850;2023-04-15T15:32:28;19.40;43.40
6986;DHT22;3533;51.246;6.850;2023-04-15T15:34:54;19.40;43.40
6986;DHT22;3533;51.246;6.850;2023-04-15T15:37:19;19.40;43.40
6986;DHT22;3533;51.246;6.850;2023-04-15T15:39:45;19.40;43.40
6986;DHT22;3533;51.246;6.850;2023-04-15T15:42:10;19.40;43.40
6986;DHT22;3533;51.246;6.850;2023-04-15T15:44:36;19.40;43.40
6986;DHT22;3533;51.246;6.850;2023-04-15T15:47:04;19.40;43.40
6986;DHT22;3533;51.246;6.850;2023-04-15T15:49:29;19.40;43.40
6986;DHT22;3533;51.246;6.850;2023-04-15T15:51:55;19.40;43.40
6986;DHT22;3533;51.246;6.850;2023-04-15T15:54:21;19.40;43.30
6986;DHT22;3533;51.246;6.850;2023-04-15T15:56:47;19.40;43.40
6986;DHT22;3533;51.246;6.850;2023-04-15T15:59:12;19.40;43.30
6986;DHT22;3533;51.246;6.850;2023-04-15T16:01:38;19.40;43.30
6986;DHT22;3533;51.246;6.850;2023-04-15T16:04:04;19.40;43.40
6986;DHT22;3533;51.246;6.850;2023-04-15T16:06:30;19.40;43.30
6986;DHT22;3533;51.246;6.850;2023-04-15T16:08:56;19.40;43.30
6986;DHT22;3533;51.246;6.850;2023-04-15T16:11:22;19.40;43.30
6986;DHT22;3533;51.246;6.850;2023-04-15T16:13:48;19.40;43.30
6986;DHT22;3533;51.246;6.850;2023-04-15T16:16:13;19.40;43.20